sensor_id;sensor_type;location;lat;lon;timestamp;P1;durP1;ratioP1;P2;durP2;ratioP2
64282;SDS011;50497;50.720;-2.084;2022-07-01T00:00:57;4.90;;;2.00;;
64282;SDS011;50497;50.720;-2.084;2022-07-01T00:03:22;6.35;;;2.38;;
64282;SDS011;50497;50.720;-2.084;2022-07-01T00:05:48;6.55;;;2.10;;
64282;SDS011;50497;50.720;-2.084;2022-07-01T00:08:13;5.32;;;2.22;;
64282;SDS011;50497;50.720;-2.084;2022-07-01T00:10:39;5.65;;;2.20;;
64282;SDS011;50497;50.720;-2.084;2022-07-01T00:13:04;5.57;;;2.20;;
64282;SDS011;50497;50.720;-2.084;2022-07-01T00:15:31;5.25;;;2.30;;
64282;SDS011;50497;50.720;-2.084;2022-07-01T00:17:57;6.70;;;2.72;;
64282;SDS011;50497;50.720;-2.084;2022-07-01T00:20:22;7.07;;;2.53;;
64282;SDS011;50497;50.720;-2.084;2022-07-01T00:22:48;7.65;;;2.45;;
64282;SDS011;50497;50.720;-2.084;2022-07-01T00:25:13;7.13;;;2.50;;
64282;SDS011;50497;50.720;-2.084;2022-07-01T00:27:40;7.25;;;2.53;;
64282;SDS011;50497;50.720;-2.084;2022-07-01T00:30:07;6.38;;;2.70;;
64282;SDS011;50497;50.720;-2.084;2022-07-01T00:32:34;5.32;;;2.30;;
64282;SDS011;50497;50.720;-2.084;2022-07-01T00:34:59;6.57;;;2.28;;
64282;SDS011;50497;50.720;-2.084;2022-07-01T00:37:26;5.40;;;2.30;;
64282;SDS011;50497;50.720;-2.084;2022-07-01T00:39:51;6.43;;;2.50;;
64282;SDS011;50497;50.720;-2.084;2022-07-01T00:42:17;7.43;;;2.75;;
64282;SDS011;50497;50.720;-2.084;2022-07-01T00:44:42;6.90;;;2.60;;
64282;SDS011;50497;50.720;-2.084;2022-07-01T00:47:09;6.78;;;2.40;;
64282;SDS011;50497;50.720;-2.084;2022-07-01T00:49:36;5.47;;;2.50;;
64282;SDS011;50497;50.720;-2.084;2022-07-01T00:52:03;7.20;;;2.70;;
64282;SDS011;50497;50.720;-2.084;2022-07-01T00:56:56;6.53;;;2.53;;
64282;SDS011;50497;50.720;-2.084;2022-07-01T00:59:22;6.13;;;2.88;;
64282;SDS011;50497;50.720;-2.084;2022-07-01T01:01:47;7.25;;;2.50;;
64282;SDS011;50497;50.720;-2.084;2022-07-01T01:04:13;7.07;;;2.63;;
64282;SDS011;50497;50.720;-2.084;2022-07-01T01:06:40;6.72;;;2.60;;
64282;SDS011;50497;50.720;-2.084;2022-07-01T01:09:05;6.55;;;2.35;;
64282;SDS011;50497;50.720;-2.084;2022-07-01T01:11:31;7.45;;;2.88;;
64282;SDS011;50497;50.720;-2.084;2022-07-01T01:13:57;6.65;;;2.50;;
64282;SDS011;50497;50.720;-2.084;2022-07-01T01:16:23;6.13;;;2.10;;
64282;SDS011;50497;50.720;-2.084;2022-07-01T01:18:51;5.95;;;2.30;;
64282;SDS011;50497;50.720;-2.084;2022-07-01T01:21:16;6.93;;;2.72;;
64282;SDS011;50497;50.720;-2.084;2022-07-01T01:23:42;6.30;;;2.50;;
64282;SDS011;50497;50.720;-2.084;2022-07-01T01:26:18;7.05;;;2.30;;
64282;SDS011;50497;50.720;-2.084;2022-07-01T01:28:46;5.55;;;2.25;;
64282;SDS011;50497;50.720;-2.084;2022-07-01T01:33:38;7.07;;;2.33;;
64282;SDS011;50497;50.720;-2.084;2022-07-01T01:36:05;6.32;;;2.15;;
64282;SDS011;50497;50.720;-2.084;2022-07-01T01:38:33;5.15;;;2.25;;
64282;SDS011;50497;50.720;-2.084;2022-07-01T01:41:00;6.28;;;2.20;;
64282;SDS011;50497;50.720;-2.084;2022-07-01T01:43:25;4.30;;;2.15;;
64282;SDS011;50497;50.720;-2.084;2022-07-01T01:45:52;5.78;;;2.33;;
64282;SDS011;50497;50.720;-2.084;2022-07-01T01:48:17;7.10;;;2.45;;
64282;SDS011;50497;50.720;-2.084;2022-07-01T01:50:42;5.55;;;2.45;;
64282;SDS011;50497;50.720;-2.084;2022-07-01T01:53:08;6.15;;;2.10;;
64282;SDS011;50497;50.720;-2.084;2022-07-01T01:55:34;6.32;;;2.33;;
64282;SDS011;50497;50.720;-2.084;2022-07-01T01:58:00;6.82;;;2.25;;
64282;SDS011;50497;50.720;-2.084;2022-07-01T02:00:25;8.18;;;2.45;;
64282;SDS011;50497;50.720;-2.084;2022-07-01T02:02:51;6.65;;;2.50;;
64282;SDS011;50497;50.720;-2.084;2022-07-01T02:05:16;5.47;;;2.20;;
64282;SDS011;50497;50.720;-2.084;2022-07-01T02:07:45;6.47;;;2.40;;
64282;SDS011;50497;50.720;-2.084;2022-07-01T02:12:35;5.82;;;2.30;;
64282;SDS011;50497;50.720;-2.084;2022-07-01T02:15:01;5.80;;;2.33;;
64282;SDS011;50497;50.720;-2.084;2022-07-01T02:17:27;5.35;;;2.33;;
64282;SDS011;50497;50.720;-2.084;2022-07-01T02:19:53;7.95;;;2.85;;
64282;SDS011;50497;50.720;-2.084;2022-07-01T02:22:18;7.85;;;2.35;;
64282;SDS011;50497;50.720;-2.084;2022-07-01T02:24:44;6.60;;;2.80;;
64282;SDS011;50497;50.720;-2.084;2022-07-01T02:27:11;6.75;;;2.70;;
64282;SDS011;50497;50.720;-2.084;2022-07-01T02:29:37;6.72;;;2.60;;
64282;SDS011;50497;50.720;-2.084;2022-07-01T02:32:03;6.07;;;2.50;;
64282;SDS011;50497;50.720;-2.084;2022-07-01T02:34:29;6.63;;;2.53;;
64282;SDS011;50497;50.720;-2.084;2022-07-01T02:36:55;7.80;;;2.35;;
64282;SDS011;50497;50.720;-2.084;2022-07-01T02:39:21;6.63;;;2.38;;
64282;SDS011;50497;50.720;-2.084;2022-07-01T02:41:47;5.15;;;2.20;;
64282;SDS011;50497;50.720;-2.084;2022-07-01T02:44:31;6.03;;;2.10;;
64282;SDS011;50497;50.720;-2.084;2022-07-01T02:47:00;4.90;;;2.10;;
64282;SDS011;50497;50.720;-2.084;2022-07-01T02:49:26;4.93;;;2.03;;
64282;SDS011;50497;50.720;-2.084;2022-07-01T02:51:51;5.45;;;2.58;;
64282;SDS011;50497;50.720;-2.084;2022-07-01T02:54:17;5.35;;;2.20;;
64282;SDS011;50497;50.720;-2.084;2022-07-01T02:56:43;5.57;;;2.30;;
64282;SDS011;50497;50.720;-2.084;2022-07-01T02:59:09;6.68;;;2.42;;
64282;SDS011;50497;50.720;-2.084;2022-07-01T03:01:34;5.15;;;2.40;;
64282;SDS011;50497;50.720;-2.084;2022-07-01T03:04:00;6.32;;;2.35;;
64282;SDS011;50497;50.720;-2.084;2022-07-01T03:06:26;6.78;;;2.50;;
64282;SDS011;50497;50.720;-2.084;2022-07-01T03:08:52;8.20;;;2.67;;
64282;SDS011;50497;50.720;-2.084;2022-07-01T03:11:17;8.00;;;2.80;;
64282;SDS011;50497;50.720;-2.084;2022-07-01T03:13:43;8.23;;;2.80;;
64282;SDS011;50497;50.720;-2.084;2022-07-01T03:16:10;7.88;;;2.97;;
64282;SDS011;50497;50.720;-2.084;2022-07-01T03:18:36;6.80;;;2.90;;
64282;SDS011;50497;50.720;-2.084;2022-07-01T03:21:01;8.85;;;2.80;;
64282;SDS011;50497;50.720;-2.084;2022-07-01T03:23:27;8.60;;;3.00;;
64282;SDS011;50497;50.720;-2.084;2022-07-01T03:25:52;6.65;;;2.83;;
64282;SDS011;50497;50.720;-2.084;2022-07-01T03:28:17;7.05;;;2.75;;
64282;SDS011;50497;50.720;-2.084;2022-07-01T03:30:43;7.05;;;2.72;;
64282;SDS011;50497;50.720;-2.084;2022-07-01T03:33:08;7.72;;;2.95;;
64282;SDS011;50497;50.720;-2.084;2022-07-01T03:35:35;9.40;;;3.03;;
64282;SDS011;50497;50.720;-2.084;2022-07-01T03:40:25;7.63;;;2.60;;
64282;SDS011;50497;50.720;-2.084;2022-07-01T03:42:51;6.75;;;2.85;;
64282;SDS011;50497;50.720;-2.084;2022-07-01T03:45:17;7.40;;;2.90;;
64282;SDS011;50497;50.720;-2.084;2022-07-01T03:47:47;7.32;;;3.00;;
64282;SDS011;50497;50.720;-2.084;2022-07-01T03:50:14;11.07;;;3.08;;
64282;SDS011;50497;50.720;-2.084;2022-07-01T03:52:40;8.07;;;2.85;;
64282;SDS011;50497;50.720;-2.084;2022-07-01T03:55:07;6.38;;;2.63;;
64282;SDS011;50497;50.720;-2.084;2022-07-01T03:57:37;6.95;;;2.65;;
64282;SDS011;50497;50.720;-2.084;2022-07-01T04:00:04;7.25;;;3.00;;
64282;SDS011;50497;50.720;-2.084;2022-07-01T04:02:31;6.65;;;2.80;;
64282;SDS011;50497;50.720;-2.084;2022-07-01T04:04:56;8.77;;;3.60;;
64282;SDS011;50497;50.720;-2.084;2022-07-01T04:07:23;8.23;;;2.80;;
64282;SDS011;50497;50.720;-2.084;2022-07-01T04:09:51;7.68;;;2.78;;
64282;SDS011;50497;50.720;-2.084;2022-07-01T04:12:17;7.97;;;2.88;;
64282;SDS011;50497;50.720;-2.084;2022-07-01T04:14:43;8.27;;;3.10;;
64282;SDS011;50497;50.720;-2.084;2022-07-01T04:17:11;7.18;;;3.15;;
64282;SDS011;50497;50.720;-2.084;2022-07-01T04:19:36;8.32;;;3.15;;
64282;SDS011;50497;50.720;-2.084;2022-07-01T04:22:02;6.32;;;2.80;;
64282;SDS011;50497;50.720;-2.084;2022-07-01T04:24:47;5.70;;;2.60;;
64282;SDS011;50497;50.720;-2.084;2022-07-01T04:27:13;8.20;;;3.10;;
64282;SDS011;50497;50.720;-2.084;2022-07-01T04:32:05;7.43;;;2.63;;
64282;SDS011;50497;50.720;-2.084;2022-07-01T04:34:30;6.05;;;2.42;;
64282;SDS011;50497;50.720;-2.084;2022-07-01T04:36:57;6.43;;;2.60;;
64282;SDS011;50497;50.720;-2.084;2022-07-01T04:39:27;7.68;;;2.60;;
64282;SDS011;50497;50.720;-2.084;2022-07-01T04:41:52;6.55;;;2.60;;
64282;SDS011;50497;50.720;-2.084;2022-07-01T04:44:27;7.03;;;2.60;;
64282;SDS011;50497;50.720;-2.084;2022-07-01T04:46:57;6.28;;;2.80;;
64282;SDS011;50497;50.720;-2.084;2022-07-01T04:49:24;6.72;;;2.60;;
64282;SDS011;50497;50.720;-2.084;2022-07-01T04:51:49;5.97;;;2.67;;
64282;SDS011;50497;50.720;-2.084;2022-07-01T04:54:15;5.90;;;2.63;;
64282;SDS011;50497;50.720;-2.084;2022-07-01T04:56:41;6.85;;;2.63;;
64282;SDS011;50497;50.720;-2.084;2022-07-01T04:59:06;6.82;;;2.80;;
64282;SDS011;50497;50.720;-2.084;2022-07-01T05:01:32;7.95;;;2.83;;
64282;SDS011;50497;50.720;-2.084;2022-07-01T05:03:58;9.43;;;2.83;;
64282;SDS011;50497;50.720;-2.084;2022-07-01T05:06:24;7.80;;;2.88;;
64282;SDS011;50497;50.720;-2.084;2022-07-01T05:08:50;8.52;;;3.67;;
64282;SDS011;50497;50.720;-2.084;2022-07-01T05:11:15;8.43;;;3.50;;
64282;SDS011;50497;50.720;-2.084;2022-07-01T05:13:41;10.15;;;3.60;;
64282;SDS011;50497;50.720;-2.084;2022-07-01T05:16:08;8.90;;;3.38;;
64282;SDS011;50497;50.720;-2.084;2022-07-01T05:18:34;9.85;;;3.95;;
64282;SDS011;50497;50.720;-2.084;2022-07-01T05:21:18;10.80;;;4.18;;
64282;SDS011;50497;50.720;-2.084;2022-07-01T05:24:02;8.90;;;3.97;;
64282;SDS011;50497;50.720;-2.084;2022-07-01T05:26:29;7.88;;;3.53;;
64282;SDS011;50497;50.720;-2.084;2022-07-01T05:28:54;8.73;;;3.47;;
64282;SDS011;50497;50.720;-2.084;2022-07-01T05:31:20;9.70;;;3.78;;
64282;SDS011;50497;50.720;-2.084;2022-07-01T05:33:46;7.97;;;3.45;;
64282;SDS011;50497;50.720;-2.084;2022-07-01T05:36:12;7.80;;;3.20;;
64282;SDS011;50497;50.720;-2.084;2022-07-01T05:38:38;8.43;;;3.53;;
64282;SDS011;50497;50.720;-2.084;2022-07-01T05:41:04;8.10;;;3.45;;
64282;SDS011;50497;50.720;-2.084;2022-07-01T05:43:30;7.75;;;3.30;;
64282;SDS011;50497;50.720;-2.084;2022-07-01T05:45:56;8.15;;;3.40;;
64282;SDS011;50497;50.720;-2.084;2022-07-01T05:48:21;6.72;;;3.20;;
64282;SDS011;50497;50.720;-2.084;2022-07-01T05:50:47;8.20;;;3.33;;
64282;SDS011;50497;50.720;-2.084;2022-07-01T05:53:13;7.32;;;3.50;;
64282;SDS011;50497;50.720;-2.084;2022-07-01T05:55:40;6.82;;;3.28;;
64282;SDS011;50497;50.720;-2.084;2022-07-01T05:58:05;7.97;;;3.33;;
64282;SDS011;50497;50.720;-2.084;2022-07-01T06:00:33;8.00;;;3.47;;
64282;SDS011;50497;50.720;-2.084;2022-07-01T06:02:59;7.85;;;3.40;;
64282;SDS011;50497;50.720;-2.084;2022-07-01T06:05:25;9.15;;;3.60;;
64282;SDS011;50497;50.720;-2.084;2022-07-01T06:07:50;10.85;;;3.50;;
64282;SDS011;50497;50.720;-2.084;2022-07-01T06:10:16;10.63;;;3.70;;
64282;SDS011;50497;50.720;-2.084;2022-07-01T06:12:41;7.20;;;3.08;;
64282;SDS011;50497;50.720;-2.084;2022-07-01T06:15:07;7.60;;;2.70;;
64282;SDS011;50497;50.720;-2.084;2022-07-01T06:17:37;7.70;;;2.60;;
64282;SDS011;50497;50.720;-2.084;2022-07-01T06:20:05;8.02;;;2.92;;
64282;SDS011;50497;50.720;-2.084;2022-07-01T06:22:31;7.78;;;2.60;;
64282;SDS011;50497;50.720;-2.084;2022-07-01T06:24:58;8.20;;;2.42;;
64282;SDS011;50497;50.720;-2.084;2022-07-01T06:27:24;6.72;;;2.40;;
64282;SDS011;50497;50.720;-2.084;2022-07-01T06:29:50;8.48;;;2.30;;
64282;SDS011;50497;50.720;-2.084;2022-07-01T06:32:16;7.80;;;2.50;;
64282;SDS011;50497;50.720;-2.084;2022-07-01T06:34:42;6.43;;;2.08;;
64282;SDS011;50497;50.720;-2.084;2022-07-01T06:37:07;5.38;;;2.15;;
64282;SDS011;50497;50.720;-2.084;2022-07-01T06:39:33;8.38;;;2.60;;
64282;SDS011;50497;50.720;-2.084;2022-07-01T06:41:58;7.40;;;2.20;;
64282;SDS011;50497;50.720;-2.084;2022-07-01T06:44:24;8.02;;;2.10;;
64282;SDS011;50497;50.720;-2.084;2022-07-01T06:46:50;7.45;;;2.20;;
64282;SDS011;50497;50.720;-2.084;2022-07-01T06:49:15;7.80;;;2.30;;
64282;SDS011;50497;50.720;-2.084;2022-07-01T06:51:41;5.53;;;2.20;;
64282;SDS011;50497;50.720;-2.084;2022-07-01T06:54:06;5.80;;;2.10;;
64282;SDS011;50497;50.720;-2.084;2022-07-01T06:56:33;7.38;;;2.22;;
64282;SDS011;50497;50.720;-2.084;2022-07-01T06:58:58;7.95;;;2.60;;
64282;SDS011;50497;50.720;-2.084;2022-07-01T07:01:24;9.68;;;2.47;;
64282;SDS011;50497;50.720;-2.084;2022-07-01T07:03:49;7.22;;;2.30;;
64282;SDS011;50497;50.720;-2.084;2022-07-01T07:08:41;9.75;;;2.40;;
64282;SDS011;50497;50.720;-2.084;2022-07-01T07:11:07;7.28;;;2.10;;
64282;SDS011;50497;50.720;-2.084;2022-07-01T07:13:34;8.80;;;2.35;;
64282;SDS011;50497;50.720;-2.084;2022-07-01T07:16:01;5.38;;;1.90;;
64282;SDS011;50497;50.720;-2.084;2022-07-01T07:18:27;7.30;;;2.17;;
64282;SDS011;50497;50.720;-2.084;2022-07-01T07:20:53;7.05;;;1.90;;
64282;SDS011;50497;50.720;-2.084;2022-07-01T07:23:18;5.60;;;2.00;;
64282;SDS011;50497;50.720;-2.084;2022-07-01T07:25:45;7.85;;;1.92;;
64282;SDS011;50497;50.720;-2.084;2022-07-01T07:28:10;5.85;;;2.03;;
64282;SDS011;50497;50.720;-2.084;2022-07-01T07:30:36;6.88;;;1.80;;
64282;SDS011;50497;50.720;-2.084;2022-07-01T07:35:27;6.65;;;1.85;;
64282;SDS011;50497;50.720;-2.084;2022-07-01T07:37:53;5.25;;;1.73;;
64282;SDS011;50497;50.720;-2.084;2022-07-01T07:40:18;5.60;;;1.60;;
64282;SDS011;50497;50.720;-2.084;2022-07-01T07:42:45;9.77;;;1.80;;
64282;SDS011;50497;50.720;-2.084;2022-07-01T07:45:12;7.72;;;2.00;;
64282;SDS011;50497;50.720;-2.084;2022-07-01T07:47:46;4.72;;;1.63;;
64282;SDS011;50497;50.720;-2.084;2022-07-01T07:50:14;5.35;;;1.70;;
64282;SDS011;50497;50.720;-2.084;2022-07-01T07:52:40;5.50;;;1.77;;
64282;SDS011;50497;50.720;-2.084;2022-07-01T07:55:07;5.82;;;1.70;;
64282;SDS011;50497;50.720;-2.084;2022-07-01T07:57:38;6.72;;;1.63;;
64282;SDS011;50497;50.720;-2.084;2022-07-01T08:00:06;6.47;;;1.75;;
64282;SDS011;50497;50.720;-2.084;2022-07-01T08:02:33;6.72;;;2.03;;
64282;SDS011;50497;50.720;-2.084;2022-07-01T08:04:59;4.47;;;1.80;;
64282;SDS011;50497;50.720;-2.084;2022-07-01T08:07:26;4.47;;;1.70;;
64282;SDS011;50497;50.720;-2.084;2022-07-01T08:09:51;6.78;;;1.92;;
64282;SDS011;50497;50.720;-2.084;2022-07-01T08:12:17;6.95;;;2.03;;
64282;SDS011;50497;50.720;-2.084;2022-07-01T08:14:43;5.53;;;1.77;;
64282;SDS011;50497;50.720;-2.084;2022-07-01T08:17:10;6.50;;;1.80;;
64282;SDS011;50497;50.720;-2.084;2022-07-01T08:19:35;5.90;;;1.67;;
64282;SDS011;50497;50.720;-2.084;2022-07-01T08:22:01;7.05;;;2.15;;
64282;SDS011;50497;50.720;-2.084;2022-07-01T08:24:26;7.93;;;2.13;;
64282;SDS011;50497;50.720;-2.084;2022-07-01T08:26:52;6.82;;;1.83;;
64282;SDS011;50497;50.720;-2.084;2022-07-01T08:29:17;6.07;;;1.80;;
64282;SDS011;50497;50.720;-2.084;2022-07-01T08:31:43;6.20;;;1.98;;
64282;SDS011;50497;50.720;-2.084;2022-07-01T08:34:08;4.60;;;1.77;;
64282;SDS011;50497;50.720;-2.084;2022-07-01T08:36:37;6.35;;;1.90;;
64282;SDS011;50497;50.720;-2.084;2022-07-01T08:39:03;6.70;;;1.80;;
64282;SDS011;50497;50.720;-2.084;2022-07-01T08:41:28;6.05;;;1.88;;
64282;SDS011;50497;50.720;-2.084;2022-07-01T08:43:54;9.10;;;1.88;;
64282;SDS011;50497;50.720;-2.084;2022-07-01T08:46:24;5.22;;;1.95;;
64282;SDS011;50497;50.720;-2.084;2022-07-01T08:48:51;5.78;;;1.50;;
64282;SDS011;50497;50.720;-2.084;2022-07-01T08:51:16;5.85;;;1.70;;
64282;SDS011;50497;50.720;-2.084;2022-07-01T08:53:41;5.38;;;1.63;;
64282;SDS011;50497;50.720;-2.084;2022-07-01T08:56:07;5.65;;;1.80;;
64282;SDS011;50497;50.720;-2.084;2022-07-01T08:58:51;7.03;;;2.03;;
64282;SDS011;50497;50.720;-2.084;2022-07-01T09:03:46;4.57;;;1.60;;
64282;SDS011;50497;50.720;-2.084;2022-07-01T09:06:21;6.00;;;1.90;;
64282;SDS011;50497;50.720;-2.084;2022-07-01T09:08:48;4.68;;;1.60;;
64282;SDS011;50497;50.720;-2.084;2022-07-01T09:11:18;5.05;;;1.70;;
64282;SDS011;50497;50.720;-2.084;2022-07-01T09:13:44;4.97;;;1.75;;
64282;SDS011;50497;50.720;-2.084;2022-07-01T09:16:12;4.35;;;1.35;;
64282;SDS011;50497;50.720;-2.084;2022-07-01T09:18:40;7.05;;;1.73;;
64282;SDS011;50497;50.720;-2.084;2022-07-01T09:23:38;4.45;;;1.40;;
64282;SDS011;50497;50.720;-2.084;2022-07-01T09:26:05;5.40;;;1.70;;
64282;SDS011;50497;50.720;-2.084;2022-07-01T09:28:31;7.85;;;1.80;;
64282;SDS011;50497;50.720;-2.084;2022-07-01T09:30:57;6.57;;;1.60;;
64282;SDS011;50497;50.720;-2.084;2022-07-01T09:35:51;6.40;;;1.92;;
64282;SDS011;50497;50.720;-2.084;2022-07-01T09:38:19;7.22;;;1.92;;
64282;SDS011;50497;50.720;-2.084;2022-07-01T09:40:50;4.60;;;1.50;;
64282;SDS011;50497;50.720;-2.084;2022-07-01T09:43:26;6.10;;;1.50;;
64282;SDS011;50497;50.720;-2.084;2022-07-01T09:50:59;4.93;;;1.60;;
64282;SDS011;50497;50.720;-2.084;2022-07-01T09:53:25;5.32;;;1.50;;
64282;SDS011;50497;50.720;-2.084;2022-07-01T09:55:51;5.88;;;1.60;;
64282;SDS011;50497;50.720;-2.084;2022-07-01T09:58:17;6.25;;;1.90;;
64282;SDS011;50497;50.720;-2.084;2022-07-01T10:00:43;6.03;;;1.52;;
64282;SDS011;50497;50.720;-2.084;2022-07-01T10:05:39;6.55;;;1.67;;
64282;SDS011;50497;50.720;-2.084;2022-07-01T10:13:25;5.07;;;1.50;;
64282;SDS011;50497;50.720;-2.084;2022-07-01T10:15:53;4.85;;;1.58;;
64282;SDS011;50497;50.720;-2.084;2022-07-01T10:18:22;5.47;;;1.50;;
64282;SDS011;50497;50.720;-2.084;2022-07-01T10:20:49;6.20;;;1.65;;
64282;SDS011;50497;50.720;-2.084;2022-07-01T10:23:15;3.45;;;1.20;;
64282;SDS011;50497;50.720;-2.084;2022-07-01T10:25:46;3.42;;;1.30;;
64282;SDS011;50497;50.720;-2.084;2022-07-01T10:28:21;3.47;;;1.27;;
64282;SDS011;50497;50.720;-2.084;2022-07-01T10:31:14;4.53;;;1.60;;
64282;SDS011;50497;50.720;-2.084;2022-07-01T10:36:29;4.65;;;1.50;;
64282;SDS011;50497;50.720;-2.084;2022-07-01T10:39:08;5.25;;;2.20;;
64282;SDS011;50497;50.720;-2.084;2022-07-01T10:41:39;5.60;;;1.40;;
64282;SDS011;50497;50.720;-2.084;2022-07-01T10:44:34;7.43;;;1.40;;
64282;SDS011;50497;50.720;-2.084;2022-07-01T10:47:05;4.28;;;1.55;;
64282;SDS011;50497;50.720;-2.084;2022-07-01T10:59:52;3.95;;;1.30;;
64282;SDS011;50497;50.720;-2.084;2022-07-01T11:02:40;3.08;;;1.30;;
64282;SDS011;50497;50.720;-2.084;2022-07-01T11:07:42;4.22;;;1.40;;
64282;SDS011;50497;50.720;-2.084;2022-07-01T11:10:11;4.78;;;1.30;;
64282;SDS011;50497;50.720;-2.084;2022-07-01T11:12:37;3.60;;;1.30;;
64282;SDS011;50497;50.720;-2.084;2022-07-01T11:15:05;7.38;;;1.58;;
64282;SDS011;50497;50.720;-2.084;2022-07-01T11:17:31;6.55;;;1.50;;
64282;SDS011;50497;50.720;-2.084;2022-07-01T11:19:58;4.15;;;1.25;;
64282;SDS011;50497;50.720;-2.084;2022-07-01T11:22:30;5.88;;;1.52;;
64282;SDS011;50497;50.720;-2.084;2022-07-01T11:24:58;4.88;;;1.40;;
64282;SDS011;50497;50.720;-2.084;2022-07-01T11:27:30;4.90;;;1.33;;
64282;SDS011;50497;50.720;-2.084;2022-07-01T11:30:00;2.70;;;1.17;;
64282;SDS011;50497;50.720;-2.084;2022-07-01T11:32:32;5.63;;;1.58;;
64282;SDS011;50497;50.720;-2.084;2022-07-01T11:35:03;3.42;;;1.13;;
64282;SDS011;50497;50.720;-2.084;2022-07-01T11:37:49;3.40;;;1.08;;
64282;SDS011;50497;50.720;-2.084;2022-07-01T11:40:34;3.90;;;1.33;;
64282;SDS011;50497;50.720;-2.084;2022-07-01T11:43:00;4.65;;;1.20;;
64282;SDS011;50497;50.720;-2.084;2022-07-01T11:47:52;4.55;;;1.30;;
64282;SDS011;50497;50.720;-2.084;2022-07-01T11:50:18;2.58;;;1.10;;
64282;SDS011;50497;50.720;-2.084;2022-07-01T11:52:45;3.60;;;1.45;;
64282;SDS011;50497;50.720;-2.084;2022-07-01T11:55:11;3.70;;;1.20;;
64282;SDS011;50497;50.720;-2.084;2022-07-01T11:57:37;4.82;;;1.30;;
64282;SDS011;50497;50.720;-2.084;2022-07-01T12:00:12;3.17;;;1.23;;
64282;SDS011;50497;50.720;-2.084;2022-07-01T12:02:38;4.78;;;1.40;;
64282;SDS011;50497;50.720;-2.084;2022-07-01T12:05:05;3.85;;;1.30;;
64282;SDS011;50497;50.720;-2.084;2022-07-01T12:07:31;4.50;;;1.30;;
64282;SDS011;50497;50.720;-2.084;2022-07-01T12:09:57;5.72;;;1.33;;
64282;SDS011;50497;50.720;-2.084;2022-07-01T12:12:24;4.05;;;1.33;;
64282;SDS011;50497;50.720;-2.084;2022-07-01T12:14:53;4.70;;;1.33;;
64282;SDS011;50497;50.720;-2.084;2022-07-01T12:17:22;3.45;;;1.40;;
64282;SDS011;50497;50.720;-2.084;2022-07-01T12:19:48;5.50;;;1.58;;
64282;SDS011;50497;50.720;-2.084;2022-07-01T12:22:24;4.38;;;1.40;;
64282;SDS011;50497;50.720;-2.084;2022-07-01T12:24:52;6.45;;;1.60;;
64282;SDS011;50497;50.720;-2.084;2022-07-01T12:27:32;5.95;;;1.65;;
64282;SDS011;50497;50.720;-2.084;2022-07-01T12:29:59;6.07;;;1.55;;
64282;SDS011;50497;50.720;-2.084;2022-07-01T12:32:27;5.85;;;1.55;;
64282;SDS011;50497;50.720;-2.084;2022-07-01T12:34:55;3.97;;;1.30;;
64282;SDS011;50497;50.720;-2.084;2022-07-01T12:37:25;3.78;;;1.30;;
64282;SDS011;50497;50.720;-2.084;2022-07-01T12:39:55;3.35;;;1.20;;
64282;SDS011;50497;50.720;-2.084;2022-07-01T12:42:29;3.67;;;1.23;;
64282;SDS011;50497;50.720;-2.084;2022-07-01T12:45:00;4.15;;;1.33;;
64282;SDS011;50497;50.720;-2.084;2022-07-01T12:47:30;3.28;;;1.13;;
64282;SDS011;50497;50.720;-2.084;2022-07-01T12:52:35;4.43;;;1.13;;
64282;SDS011;50497;50.720;-2.084;2022-07-01T12:58:13;1.02;;;0.70;;
64282;SDS011;50497;50.720;-2.084;2022-07-01T13:00:47;1.88;;;0.60;;
64282;SDS011;50497;50.720;-2.084;2022-07-01T13:03:17;1.50;;;0.90;;
64282;SDS011;50497;50.720;-2.084;2022-07-01T13:05:44;2.83;;;0.90;;
64282;SDS011;50497;50.720;-2.084;2022-07-01T13:10:35;2.65;;;0.70;;
64282;SDS011;50497;50.720;-2.084;2022-07-01T13:13:01;2.50;;;0.70;;
64282;SDS011;50497;50.720;-2.084;2022-07-01T13:15:29;3.50;;;0.90;;
64282;SDS011;50497;50.720;-2.084;2022-07-01T13:20:20;2.65;;;0.82;;
64282;SDS011;50497;50.720;-2.084;2022-07-01T13:25:11;2.92;;;1.00;;
64282;SDS011;50497;50.720;-2.084;2022-07-01T13:27:38;2.88;;;0.80;;
64282;SDS011;50497;50.720;-2.084;2022-07-01T13:30:04;2.95;;;0.90;;
64282;SDS011;50497;50.720;-2.084;2022-07-01T13:32:31;1.40;;;0.70;;
64282;SDS011;50497;50.720;-2.084;2022-07-01T13:37:23;2.47;;;0.90;;
64282;SDS011;50497;50.720;-2.084;2022-07-01T13:42:14;1.50;;;0.90;;
64282;SDS011;50497;50.720;-2.084;2022-07-01T13:47:05;2.08;;;0.90;;
64282;SDS011;50497;50.720;-2.084;2022-07-01T13:49:34;2.70;;;0.82;;
64282;SDS011;50497;50.720;-2.084;2022-07-01T13:52:02;3.17;;;0.82;;
64282;SDS011;50497;50.720;-2.084;2022-07-01T13:54:28;2.72;;;0.77;;
64282;SDS011;50497;50.720;-2.084;2022-07-01T13:59:19;2.80;;;0.98;;
64282;SDS011;50497;50.720;-2.084;2022-07-01T14:04:10;2.60;;;1.00;;
64282;SDS011;50497;50.720;-2.084;2022-07-01T14:06:36;2.13;;;0.73;;
64282;SDS011;50497;50.720;-2.084;2022-07-01T14:11:28;3.85;;;1.00;;
64282;SDS011;50497;50.720;-2.084;2022-07-01T14:16:19;2.67;;;0.80;;
64282;SDS011;50497;50.720;-2.084;2022-07-01T14:18:44;2.90;;;0.85;;
64282;SDS011;50497;50.720;-2.084;2022-07-01T14:23:35;6.18;;;1.33;;
64282;SDS011;50497;50.720;-2.084;2022-07-01T14:26:01;2.95;;;0.90;;
64282;SDS011;50497;50.720;-2.084;2022-07-01T14:28:27;5.47;;;1.20;;
64282;SDS011;50497;50.720;-2.084;2022-07-01T14:33:20;6.00;;;1.33;;
64282;SDS011;50497;50.720;-2.084;2022-07-01T14:35:46;3.67;;;1.00;;
64282;SDS011;50497;50.720;-2.084;2022-07-01T14:38:12;2.22;;;0.90;;
64282;SDS011;50497;50.720;-2.084;2022-07-01T14:40:39;3.33;;;1.08;;
64282;SDS011;50497;50.720;-2.084;2022-07-01T14:45:30;3.47;;;1.00;;
64282;SDS011;50497;50.720;-2.084;2022-07-01T14:50:21;3.72;;;1.00;;
64282;SDS011;50497;50.720;-2.084;2022-07-01T14:52:47;3.30;;;1.00;;
64282;SDS011;50497;50.720;-2.084;2022-07-01T14:55:19;1.90;;;0.90;;
64282;SDS011;50497;50.720;-2.084;2022-07-01T14:57:45;4.15;;;1.00;;
64282;SDS011;50497;50.720;-2.084;2022-07-01T15:02:46;3.45;;;1.08;;
64282;SDS011;50497;50.720;-2.084;2022-07-01T15:05:18;3.08;;;0.90;;
64282;SDS011;50497;50.720;-2.084;2022-07-01T15:07:47;3.25;;;1.00;;
64282;SDS011;50497;50.720;-2.084;2022-07-01T15:10:17;3.22;;;1.15;;
64282;SDS011;50497;50.720;-2.084;2022-07-01T15:12:52;3.75;;;1.00;;
64282;SDS011;50497;50.720;-2.084;2022-07-01T15:15:21;3.00;;;1.00;;
64282;SDS011;50497;50.720;-2.084;2022-07-01T15:17:48;4.43;;;1.27;;
64282;SDS011;50497;50.720;-2.084;2022-07-01T15:20:17;6.85;;;1.00;;
64282;SDS011;50497;50.720;-2.084;2022-07-01T15:22:43;3.47;;;1.00;;
64282;SDS011;50497;50.720;-2.084;2022-07-01T15:25:16;7.93;;;1.38;;
64282;SDS011;50497;50.720;-2.084;2022-07-01T15:30:14;3.78;;;0.88;;
64282;SDS011;50497;50.720;-2.084;2022-07-01T15:32:43;2.70;;;1.10;;
64282;SDS011;50497;50.720;-2.084;2022-07-01T15:35:10;2.97;;;1.20;;
64282;SDS011;50497;50.720;-2.084;2022-07-01T15:37:45;5.32;;;1.20;;
64282;SDS011;50497;50.720;-2.084;2022-07-01T15:40:19;3.03;;;1.00;;
64282;SDS011;50497;50.720;-2.084;2022-07-01T15:42:45;6.38;;;1.15;;
64282;SDS011;50497;50.720;-2.084;2022-07-01T15:45:14;5.55;;;1.42;;
64282;SDS011;50497;50.720;-2.084;2022-07-01T15:50:38;4.38;;;1.20;;
64282;SDS011;50497;50.720;-2.084;2022-07-01T15:53:06;4.13;;;1.25;;
64282;SDS011;50497;50.720;-2.084;2022-07-01T15:55:33;4.82;;;1.40;;
64282;SDS011;50497;50.720;-2.084;2022-07-01T15:58:07;7.53;;;1.30;;
64282;SDS011;50497;50.720;-2.084;2022-07-01T16:00:36;3.92;;;1.00;;
64282;SDS011;50497;50.720;-2.084;2022-07-01T16:03:05;3.75;;;1.08;;
64282;SDS011;50497;50.720;-2.084;2022-07-01T16:05:43;3.33;;;1.10;;
64282;SDS011;50497;50.720;-2.084;2022-07-01T16:08:16;5.82;;;1.30;;
64282;SDS011;50497;50.720;-2.084;2022-07-01T16:10:57;4.18;;;1.23;;
64282;SDS011;50497;50.720;-2.084;2022-07-01T16:13:41;3.72;;;1.20;;
64282;SDS011;50497;50.720;-2.084;2022-07-01T16:16:11;4.60;;;1.13;;
64282;SDS011;50497;50.720;-2.084;2022-07-01T16:18:52;2.90;;;1.17;;